Time;durP1;ratioP1;P1;durP2;ratioP2;P2;SDS_P1;SDS_P2;PMS_P1;PMS_P2;Temp;Humidity;BMP_temperature;BMP_pressure;BME280_temperature;BME280_humidity;BME280_pressure;Samples;Min_cycle;Max_cycle;Signal;HPM_P1;HPM_P2
2023/08/04 00:00:29;;;;;;;;;;;;;;;16.22;78.34;99928.20;107089;1267;60436;-87
2023/08/04 00:03:18;;;;;;;;;;;;;;;16.21;78.49;99929.11;106997;1265;124428;-87
2023/08/04 00:05:47;;;;;;;;;;;;;;;16.19;78.52;99930.17;107489;1256;66900;-88
2023/08/04 00:08:25;;;;;;;;;;;;;;;16.19;78.54;99932.30;107739;1256;123866;-88
2023/08/04 00:11:04;;;;;;;;;;;;;;;16.18;78.60;99931.61;107632;1257;60377;-88
2023/08/04 00:13:40;;;;;;;;;;;;;;;16.17;78.72;99934.64;107547;1256;123453;-88
2023/08/04 00:16:09;;;;;;;;;;;;;;;16.16;78.65;99943.14;107629;1256;74844;-87
2023/08/04 00:18:43;;;;;;;;;;;;;;;16.15;78.73;99950.58;107735;1256;65915;-88
2023/08/04 00:21:12;;;;;;;;;;;;;;;16.12;78.84;99955.75;107674;1256;123106;-88
2023/08/04 00:23:41;;;;;;;;;;;;;;;16.10;78.83;99956.83;107780;1256;59890;-87
2023/08/04 00:26:08;;;;;;;;;;;;;;;16.08;78.91;99955.77;107741;1257;124355;-87
2023/08/04 00:28:41;;;;;;;;;;;;;;;16.07;78.89;99961.11;107631;1257;72292;-87
2023/08/04 00:31:34;;;;;;;;;;;;;;;16.05;79.03;99971.05;107492;1260;125357;-89
2023/08/04 00:34:24;;;;;;;;;;;;;;;16.04;79.13;99969.63;107287;1259;71445;-90
2023/08/04 00:37:05;;;;;;;;;;;;;;;16.03;79.20;99963.09;107429;1259;59187;-90
2023/08/04 00:39:53;;;;;;;;;;;;;;;16.02;79.21;99966.98;107373;1261;60498;-90
2023/08/04 00:42:29;;;;;;;;;;;;;;;16.01;79.37;99974.27;107438;1264;71945;-90
2023/08/04 00:48:44;;;;;;;;;;;;;;;16.00;79.43;99971.27;107324;1263;71424;-91
2023/08/04 00:55:39;;;;;;;;;;;;;;;15.98;79.42;99986.15;107541;1263;58861;-91
2023/08/04 00:59:03;;;;;;;;;;;;;;;15.95;79.77;99995.55;107399;1262;75259;-92
2023/08/04 01:02:18;;;;;;;;;;;;;;;15.94;79.77;99996.80;107532;1260;124643;-92
2023/08/04 01:05:38;;;;;;;;;;;;;;;15.95;79.87;100001.92;107541;1262;71981;-92
2023/08/04 01:09:05;;;;;;;;;;;;;;;15.98;80.04;100006.67;107145;1266;124514;-92
2023/08/04 01:26:45;;;;;;;;;;;;;;;16.11;80.66;100032.03;105742;1283;124618;-90
2023/08/04 01:33:22;;;;;;;;;;;;;;;16.12;80.25;100034.15;105125;1289;124473;-90
2023/08/04 01:35:55;;;;;;;;;;;;;;;16.10;80.14;100037.54;105043;1289;69270;-89
2023/08/04 01:38:23;;;;;;;;;;;;;;;16.06;80.19;100044.47;104823;1292;124566;-89
2023/08/04 01:41:00;;;;;;;;;;;;;;;16.05;80.35;100045.91;104878;1290;60584;-88
2023/08/04 01:43:43;;;;;;;;;;;;;;;16.05;80.49;100048.02;105352;1283;124671;-89
2023/08/04 01:46:22;;;;;;;;;;;;;;;16.04;80.54;100044.31;105363;1283;72775;-88
2023/08/04 01:48:55;;;;;;;;;;;;;;;16.04;80.57;100046.96;106000;1280;67975;-89
2023/08/04 01:51:23;;;;;;;;;;;;;;;16.03;80.65;100050.52;106018;1282;124733;-88
2023/08/04 02:00:29;;;;;;;;;;;;;;;15.99;80.94;100068.09;106692;1280;74556;-92
2023/08/04 02:09:27;;;;;;;;;;;;;;;15.99;81.13;100061.16;106477;1271;124000;-88
2023/08/04 02:12:07;;;;;;;;;;;;;;;16.00;81.08;100066.11;106958;1271;60611;-91
2023/08/04 02:14:35;;;;;;;;;;;;;;;16.00;81.18;100063.10;106751;1270;123396;-89
2023/08/04 02:17:02;;;;;;;;;;;;;;;16.00;81.20;100065.05;106777;1272;65665;-88
2023/08/04 02:22:55;;;;;;;;;;;;;;;15.98;81.29;100068.26;107010;1271;60376;-89
2023/08/04 02:25:30;;;;;;;;;;;;;;;15.99;81.40;100074.63;106967;1271;123916;-89
2023/08/04 02:28:06;;;;;;;;;;;;;;;15.99;81.44;100078.52;106883;1270;75011;-90
2023/08/04 02:34:32;;;;;;;;;;;;;;;16.05;81.68;100083.06;106609;1271;72412;-89
2023/08/04 02:37:07;;;;;;;;;;;;;;;16.06;81.70;100082.35;107218;1265;59246;-89
2023/08/04 02:39:35;;;;;;;;;;;;;;;16.07;81.78;100088.35;107531;1264;124494;-90
2023/08/04 02:42:17;;;;;;;;;;;;;;;16.11;81.90;100096.11;107454;1264;73754;-88
2023/08/04 02:45:02;;;;;;;;;;;;;;;16.16;81.98;100098.36;107299;1264;123595;-88
2023/08/04 02:47:31;;;;;;;;;;;;;;;16.20;81.94;100100.82;107609;1262;73254;-88
2023/08/04 02:50:14;;;;;;;;;;;;;;;16.21;81.97;100099.22;107558;1265;124686;-93
2023/08/04 02:53:14;;;;;;;;;;;;;;;16.25;81.97;100100.42;107297;1268;60373;-91
2023/08/04 02:56:00;;;;;;;;;;;;;;;16.29;81.94;100103.03;106975;1262;124685;-87
2023/08/04 02:58:27;;;;;;;;;;;;;;;16.31;81.86;100111.70;107021;1262;65768;-87
2023/08/04 03:01:08;;;;;;;;;;;;;;;16.32;81.82;100117.71;107284;1263;71541;-91
2023/08/04 03:04:13;;;;;;;;;;;;;;;16.33;81.89;100120.19;107183;1262;124619;-91
2023/08/04 03:10:13;;;;;;;;;;;;;;;16.46;82.29;100126.80;107324;1254;73464;-90
2023/08/04 03:19:27;;;;;;;;;;;;;;;16.82;82.20;100125.76;107802;1254;60533;-90
2023/08/04 03:22:00;;;;;;;;;;;;;;;16.90;82.15;100129.58;107419;1254;123140;-88
2023/08/04 03:27:49;;;;;;;;;;;;;;;17.09;82.01;100134.52;108357;1259;124452;-86
2023/08/04 03:30:19;;;;;;;;;;;;;;;17.16;81.90;100140.80;108306;1254;72609;-86
2023/08/04 03:32:46;;;;;;;;;;;;;;;17.24;81.79;100147.80;107936;1253;125145;-86
2023/08/04 03:35:13;;;;;;;;;;;;;;;17.32;81.71;100148.23;107956;1258;59331;-86
2023/08/04 03:37:40;;;;;;;;;;;;;;;17.38;81.55;100150.13;108096;1256;125092;-86
2023/08/04 03:40:10;;;;;;;;;;;;;;;17.45;81.44;100154.30;108336;1253;65574;-87
2023/08/04 03:42:38;;;;;;;;;;;;;;;17.51;81.35;100160.06;109294;1254;72113;-87
2023/08/04 03:53:06;;;;;;;;;;;;;;;17.73;80.87;100161.36;107388;1263;74535;-92
2023/08/04 03:56:31;;;;;;;;;;;;;;;17.79;80.70;100157.02;107000;1268;124631;-91
2023/08/04 04:00:06;;;;;;;;;;;;;;;;;;;;;
2023/08/04 04:03:26;;;;;;;;;;;;;;;17.99;80.31;100169.02;106599;1274;123472;-91
2023/08/04 04:07:15;;;;;;;;;;;;;;;18.09;80.17;100172.43;106315;1280;60338;-91
2023/08/04 04:10:56;;;;;;;;;;;;;;;;;;;;;
2023/08/04 04:13:51;;;;;;;;;;;;;;;18.26;79.69;100189.39;105687;1292;65843;-91
2023/08/04 04:36:57;;;;;;;;;;;;;;;18.74;78.09;100203.52;104801;1286;60508;-90
2023/08/04 04:39:57;;;;;;;;;;;;;;;18.78;77.98;100201.31;105158;1285;124545;-89
2023/08/04 04:42:45;;;;;;;;;;;;;;;18.88;77.94;100196.73;105666;1277;75165;-90
2023/08/04 04:49:23;;;;;;;;;;;;;;;19.22;77.66;100199.83;107168;1264;74568;-89
2023/08/04 04:55:30;;;;;;;;;;;;;;;19.69;77.22;100219.20;107001;1268;60544;-89
2023/08/04 05:01:23;;;;;;;;;;;;;;;20.66;76.92;100217.35;107315;1259;68046;-91
2023/08/04 05:04:09;;;;;;;;;;;;;;;21.91;77.36;100216.61;107063;1259;124324;-87
2023/08/04 05:06:40;;;;;;;;;;;;;;;22.53;74.39;100218.45;107058;1259;60440;-86
2023/08/04 05:09:11;;;;;;;;;;;;;;;22.63;72.86;100223.16;106782;1262;122707;-89
2023/08/04 05:14:52;;;;;;;;;;;;;;;22.53;71.17;100224.02;107487;1264;123709;-89
2023/08/04 05:17:42;;;;;;;;;;;;;;;22.37;70.88;100219.86;107398;1259;71424;-90
2023/08/04 05:20:26;;;;;;;;;;;;;;;22.25;70.76;100220.59;107170;1260;124187;-91
2023/08/04 05:22:56;;;;;;;;;;;;;;;22.66;71.72;100211.04;107802;1259;60181;-91
2023/08/04 05:25:42;;;;;;;;;;;;;;;24.04;72.34;100200.15;107146;1259;73910;-85
2023/08/04 05:31:19;;;;;;;;;;;;;;;28.72;69.40;100193.16;107309;1259;64062;-90
2023/08/04 05:34:05;;;;;;;;;;;;;;;30.69;66.27;100195.66;107094;1259;124435;-91
2023/08/04 05:36:33;;;;;;;;;;;;;;;32.27;63.08;100195.29;107110;1259;60527;-90
2023/08/04 05:39:07;;;;;;;;;;;;;;;33.50;60.59;100192.96;107034;1259;124734;-88
2023/08/04 05:41:45;;;;;;;;;;;;;;;34.11;56.78;100187.89;107312;1264;60378;-90
2023/08/04 05:44:32;;;;;;;;;;;;;;;33.00;53.20;100193.56;107439;1259;124738;-92
2023/08/04 05:53:35;;;;;;;;;;;;;;;27.43;53.59;100232.02;108239;1262;63797;-94
2023/08/04 05:56:11;;;;;;;;;;;;;;;26.44;54.76;100237.82;107678;1263;124597;-87
2023/08/04 06:05:48;;;;;;;;;;;;;;;24.34;57.56;100249.55;107239;1265;60528;-91
2023/08/04 06:08:42;;;;;;;;;;;;;;;23.88;58.14;100249.53;107040;1264;123108;-92
2023/08/04 06:11:33;;;;;;;;;;;;;;;23.45;58.33;100252.91;107035;1265;65817;-92
2023/08/04 06:14:08;;;;;;;;;;;;;;;23.04;58.99;100259.52;107016;1265;72778;-92
2023/08/04 06:16:35;;;;;;;;;;;;;;;22.80;59.66;100259.95;106558;1264;555223;-86
2023/08/04 06:19:06;;;;;;;;;;;;;;;22.62;59.94;100263.04;106978;1265;60540;-85
2023/08/04 06:21:49;;;;;;;;;;;;;;;22.40;60.23;100261.08;106906;1270;124123;-85
2023/08/04 06:24:33;;;;;;;;;;;;;;;22.28;61.05;100263.24;106907;1269;67086;-85
2023/08/04 06:27:05;;;;;;;;;;;;;;;22.18;61.38;100261.70;107077;1259;123894;-85
2023/08/04 06:29:35;;;;;;;;;;;;;;;22.11;61.51;100259.05;107177;1259;60986;-85
2023/08/04 06:32:18;;;;;;;;;;;;;;;22.03;61.58;100257.52;107254;1259;60486;-85
2023/08/04 06:34:56;;;;;;;;;;;;;;;21.96;61.87;100262.22;107161;1259;72551;-86
2023/08/04 06:37:36;;;;;;;;;;;;;;;21.86;61.72;100268.92;107281;1259;66850;-86
2023/08/04 06:40:04;;;;;;;;;;;;;;;21.74;62.05;100275.02;107050;1259;123932;-85
2023/08/04 06:42:44;;;;;;;;;;;;;;;21.67;62.41;100275.90;107263;1259;60245;-85
2023/08/04 06:45:11;;;;;;;;;;;;;;;21.69;62.51;100280.16;107488;1260;123891;-84
2023/08/04 06:47:39;;;;;;;;;;;;;;;21.68;62.59;100289.27;107206;1259;73911;-85
2023/08/04 06:50:14;;;;;;;;;;;;;;;21.67;62.61;100296.80;107015;1258;67098;-83
2023/08/04 06:52:41;;;;;;;;;;;;;;;21.79;63.07;100302.35;107258;1259;72708;-85
2023/08/04 06:55:16;;;;;;;;;;;;;;;22.09;63.16;100307.90;107128;1259;60386;-85
2023/08/04 06:57:44;;;;;;;;;;;;;;;22.40;63.06;100307.22;107431;1258;124001;-85
2023/08/04 07:00:12;;;;;;;;;;;;;;;22.60;62.56;100306.20;107382;1257;74400;-86
2023/08/04 07:02:42;;;;;;;;;;;;;;;22.65;62.21;100300.15;107120;1258;124072;-85
2023/08/04 07:05:28;;;;;;;;;;;;;;;22.63;61.84;100294.31;107231;1258;72882;-84
2023/08/04 07:07:58;;;;;;;;;;;;;;;22.56;61.85;100295.98;107237;1257;60409;-85
2023/08/04 07:10:52;;;;;;;;;;;;;;;22.50;61.86;100299.71;107050;1257;123914;-85
2023/08/04 07:13:29;;;;;;;;;;;;;;;22.53;61.97;100302.52;107484;1258;72436;-85
2023/08/04 07:16:03;;;;;;;;;;;;;;;22.59;62.04;100310.71;107404;1261;123955;-84
2023/08/04 07:18:44;;;;;;;;;;;;;;;22.63;61.97;100310.58;107242;1258;71479;-85
2023/08/04 07:21:12;;;;;;;;;;;;;;;22.68;61.59;100313.28;107042;1257;124050;-85
2023/08/04 07:23:46;;;;;;;;;;;;;;;22.74;61.54;100317.21;107144;1259;60535;-85
2023/08/04 07:26:13;;;;;;;;;;;;;;;22.90;61.46;100319.77;107186;1263;72445;-84
2023/08/04 07:28:58;;;;;;;;;;;;;;;23.06;61.41;100319.05;107176;1259;67152;-84
2023/08/04 07:31:27;;;;;;;;;;;;;;;23.25;61.28;100328.27;107415;1258;71532;-83
2023/08/04 07:33:55;;;;;;;;;;;;;;;23.41;61.20;100338.64;107471;1254;125101;-86
2023/08/04 07:36:24;;;;;;;;;;;;;;;23.53;60.55;100347.17;107571;1257;60430;-84
2023/08/04 07:38:51;;;;;;;;;;;;;;;23.60;60.15;100354.98;107335;1253;124242;-83
2023/08/04 07:41:30;;;;;;;;;;;;;;;23.71;60.03;100355.89;107304;1260;66012;-83
2023/08/04 07:43:57;;;;;;;;;;;;;;;23.82;59.73;100356.77;107366;1260;72420;-84
2023/08/04 07:46:38;;;;;;;;;;;;;;;23.89;59.27;100359.36;107397;1256;123729;-83
2023/08/04 07:49:19;;;;;;;;;;;;;;;23.98;58.94;100358.52;107535;1254;60224;-85
2023/08/04 07:51:56;;;;;;;;;;;;;;;24.06;58.65;100357.13;107367;1254;123829;-84
2023/08/04 07:54:29;;;;;;;;;;;;;;;24.20;58.52;100356.79;107472;1253;65773;-84
2023/08/04 07:57:21;;;;;;;;;;;;;;;24.28;57.86;100356.14;107310;1253;124147;-85
2023/08/04 07:59:51;;;;;;;;;;;;;;;24.30;57.86;100363.41;107473;1254;60252;-84
2023/08/04 08:02:21;;;;;;;;;;;;;;;24.34;57.75;100363.07;107501;1254;124125;-85
2023/08/04 08:04:52;;;;;;;;;;;;;;;24.42;57.88;100366.87;107409;1260;73944;-85
2023/08/04 08:07:19;;;;;;;;;;;;;;;24.61;57.67;100378.75;107742;1256;67073;-84
2023/08/04 08:09:47;;;;;;;;;;;;;;;24.79;56.97;100385.73;107410;1253;124391;-84
2023/08/04 08:12:30;;;;;;;;;;;;;;;24.89;56.69;100388.77;107555;1254;60343;-84
2023/08/04 08:15:07;;;;;;;;;;;;;;;25.00;56.51;100392.29;107412;1253;124866;-86
2023/08/04 08:17:51;;;;;;;;;;;;;;;25.05;56.07;100394.95;107470;1255;73497;-84
2023/08/04 08:20:45;;;;;;;;;;;;;;;25.12;55.77;100399.66;107351;1253;123923;-84
2023/08/04 08:23:49;;;;;;;;;;;;;;;25.09;55.32;100401.80;107319;1256;74049;-85
2023/08/04 08:26:16;;;;;;;;;;;;;;;25.16;55.49;100402.74;107104;1256;123893;-85
2023/08/04 08:28:49;;;;;;;;;;;;;;;25.28;55.24;100409.30;107464;1258;59046;-85
2023/08/04 08:31:24;;;;;;;;;;;;;;;25.42;54.94;100409.44;107423;1257;73931;-91
2023/08/04 08:37:20;;;;;;;;;;;;;;;25.23;54.27;100421.15;108120;1257;70354;-92
2023/08/04 08:40:15;;;;;;;;;;;;;;;25.22;54.12;100425.83;107981;1257;123699;-92
2023/08/04 08:43:09;;;;;;;;;;;;;;;25.22;54.18;100428.02;108136;1263;60043;-92
2023/08/04 08:45:46;;;;;;;;;;;;;;;25.32;54.07;100424.39;108098;1256;122828;-85
2023/08/04 08:48:14;;;;;;;;;;;;;;;25.41;53.98;100433.55;107415;1260;65799;-84
2023/08/04 08:51:03;;;;;;;;;;;;;;;25.41;53.64;100444.33;107277;1259;123052;-84
2023/08/04 08:53:36;;;;;;;;;;;;;;;25.33;53.28;100449.85;107424;1260;60246;-84
2023/08/04 08:56:03;;;;;;;;;;;;;;;25.32;53.43;100444.70;107567;1256;60196;-84
2023/08/04 08:58:32;;;;;;;;;;;;;;;25.30;53.31;100443.17;107289;1256;123908;-84
2023/08/04 09:01:08;;;;;;;;;;;;;;;25.34;52.95;100442.79;107484;1259;65446;-84
2023/08/04 09:03:41;;;;;;;;;;;;;;;25.49;52.74;100450.43;107124;1263;123718;-85
2023/08/04 09:06:11;;;;;;;;;;;;;;;25.64;52.46;100448.41;107402;1257;59196;-85
2023/08/04 09:08:51;;;;;;;;;;;;;;;25.79;52.49;100451.16;107277;1257;123940;-84
2023/08/04 09:14:19;;;;;;;;;;;;;;;25.95;52.09;100451.73;107343;1258;123947;-85
2023/08/04 09:16:47;;;;;;;;;;;;;;;25.98;52.01;100459.17;107449;1259;72705;-84
2023/08/04 09:19:14;;;;;;;;;;;;;;;25.95;51.87;100459.30;107406;1262;60403;-84
2023/08/04 09:21:44;;;;;;;;;;;;;;;26.08;51.72;100461.27;107232;1261;124021;-83
2023/08/04 09:24:11;;;;;;;;;;;;;;;26.22;51.58;100463.15;107290;1262;72320;-83
2023/08/04 09:26:46;;;;;;;;;;;;;;;26.23;51.48;100468.52;107451;1254;123319;-83
2023/08/04 09:29:22;;;;;;;;;;;;;;;26.19;51.43;100472.98;107742;1258;72467;-83
2023/08/04 09:31:58;;;;;;;;;;;;;;;26.16;51.34;100473.33;107418;1256;59999;-85
2023/08/04 09:34:52;;;;;;;;;;;;;;;26.17;51.46;100474.88;107515;1257;123966;-85
2023/08/04 09:37:21;;;;;;;;;;;;;;;26.29;51.15;100475.81;107642;1254;72604;-85
2023/08/04 09:39:57;;;;;;;;;;;;;;;26.27;51.08;100474.45;107302;1255;123986;-85
2023/08/04 09:42:44;;;;;;;;;;;;;;;26.24;51.10;100477.11;107306;1260;72705;-90
2023/08/04 09:45:32;;;;;;;;;;;;;;;26.15;50.71;100477.70;107697;1254;123831;-94
2023/08/04 09:48:03;;;;;;;;;;;;;;;26.10;50.58;100480.21;107562;1259;60419;-83
2023/08/04 09:50:36;;;;;;;;;;;;;;;26.18;50.73;100485.61;107699;1254;124026;-92
2023/08/04 09:53:26;;;;;;;;;;;;;;;26.34;50.64;100485.46;108086;1254;67791;-84
2023/08/04 09:55:53;;;;;;;;;;;;;;;26.56;50.43;100487.92;107768;1258;72566;-83
2023/08/04 09:58:21;;;;;;;;;;;;;;;26.61;49.97;100488.06;107633;1259;123981;-84
2023/08/04 10:00:54;;;;;;;;;;;;;;;26.45;50.06;100488.20;107698;1255;60019;-84
2023/08/04 10:03:23;;;;;;;;;;;;;;;26.27;49.91;100489.91;107578;1254;124267;-84
2023/08/04 10:06:11;;;;;;;;;;;;;;;26.12;49.74;100489.14;107726;1260;65532;-84
2023/08/04 10:08:40;;;;;;;;;;;;;;;26.01;49.74;100483.88;107625;1258;124542;-84
2023/08/04 10:14:15;;;;;;;;;;;;;;;25.88;49.67;100489.42;107352;1265;60352;-92
2023/08/04 10:16:51;;;;;;;;;;;;;;;25.82;49.89;100490.04;107361;1262;72489;-83
2023/08/04 10:19:32;;;;;;;;;;;;;;;25.75;49.99;100494.45;107282;1265;64631;-84
2023/08/04 10:22:12;;;;;;;;;;;;;;;25.65;50.32;100498.48;107323;1262;123748;-85
2023/08/04 10:24:44;;;;;;;;;;;;;;;25.61;50.68;100499.17;107495;1262;60592;-85
2023/08/04 10:27:20;;;;;;;;;;;;;;;25.63;50.88;100503.06;107277;1263;124455;-86
2023/08/04 10:30:09;;;;;;;;;;;;;;;25.60;50.90;100509.84;107428;1263;72428;-85
2023/08/04 10:32:50;;;;;;;;;;;;;;;25.63;51.16;100512.41;106996;1265;124079;-84
2023/08/04 10:35:21;;;;;;;;;;;;;;;25.73;51.21;100516.83;107161;1264;71559;-85
2023/08/04 10:37:55;;;;;;;;;;;;;;;25.83;51.06;100522.89;107077;1265;60584;-85
2023/08/04 10:40:32;;;;;;;;;;;;;;;25.88;51.10;100526.27;107207;1261;124952;-84
2023/08/04 10:43:19;;;;;;;;;;;;;;;25.91;50.91;100524.02;107283;1260;73058;-86
2023/08/04 10:46:05;;;;;;;;;;;;;;;26.00;51.12;100531.92;107509;1263;123997;-86
2023/08/04 10:48:40;;;;;;;;;;;;;;;26.14;51.04;100533.82;107387;1266;71858;-85
2023/08/04 10:51:09;;;;;;;;;;;;;;;26.20;50.81;100533.38;107431;1253;123720;-84
2023/08/04 10:54:09;;;;;;;;;;;;;;;26.17;50.47;100534.77;107770;1259;60125;-86
2023/08/04 10:56:38;;;;;;;;;;;;;;;26.18;50.15;100535.27;107961;1254;123902;-86
2023/08/04 10:59:09;;;;;;;;;;;;;;;26.24;50.08;100532.66;107974;1253;66961;-93
2023/08/04 11:02:37;;;;;;;;;;;;;;;26.32;49.57;100529.63;108145;1253;71759;-94
2023/08/04 11:05:53;;;;;;;;;;;;;;;26.43;49.26;100528.77;108346;1254;60339;-93
2023/08/04 11:09:30;;;;;;;;;;;;;;;26.65;49.17;100529.80;107637;1265;124124;-93
2023/08/04 11:12:25;;;;;;;;;;;;;;;26.96;48.95;100523.90;107354;1268;63634;-93
2023/08/04 11:15:53;;;;;;;;;;;;;;;27.37;48.76;100533.89;107216;1270;124010;-94
2023/08/04 11:19:32;;;;;;;;;;;;;;;;;;;;;
2023/08/04 11:22:29;;;;;;;;;;;;;;;27.83;47.78;100544.24;106902;1272;123861;-94
2023/08/04 11:28:58;;;;;;;;;;;;;;;28.13;47.36;100559.89;106109;1277;124114;-86
2023/08/04 11:31:26;;;;;;;;;;;;;;;28.23;46.89;100557.20;106420;1279;66274;-85
2023/08/04 11:34:03;;;;;;;;;;;;;;;28.20;46.75;100556.98;106018;1278;123764;-85
2023/08/04 11:36:31;;;;;;;;;;;;;;;27.99;46.23;100559.50;106150;1273;60518;-84
2023/08/04 11:38:59;;;;;;;;;;;;;;;27.62;46.14;100558.75;106066;1272;123995;-85
2023/08/04 11:41:30;;;;;;;;;;;;;;;27.27;46.38;100568.75;106199;1273;74982;-85
2023/08/04 11:44:06;;;;;;;;;;;;;;;27.07;46.88;100566.45;106755;1273;67172;-86
2023/08/04 11:46:41;;;;;;;;;;;;;;;27.01;47.28;100563.81;107363;1262;123793;-85
2023/08/04 11:49:16;;;;;;;;;;;;;;;27.00;47.54;100561.55;107536;1263;59275;-85
2023/08/04 11:51:50;;;;;;;;;;;;;;;27.06;47.64;100555.66;107356;1263;124748;-85
2023/08/04 11:54:23;;;;;;;;;;;;;;;27.16;47.94;100551.93;107664;1254;73996;-86
2023/08/04 11:56:55;;;;;;;;;;;;;;;27.24;47.70;100558.41;107983;1254;124363;-85
2023/08/04 11:59:31;;;;;;;;;;;;;;;27.36;47.86;100556.09;107788;1254;73220;-85
2023/08/04 12:02:08;;;;;;;;;;;;;;;27.57;47.50;100558.11;107819;1254;59327;-85
2023/08/04 12:04:39;;;;;;;;;;;;;;;27.73;47.15;100560.95;107562;1254;123945;-84
2023/08/04 12:07:12;;;;;;;;;;;;;;;27.89;47.07;100562.15;107613;1259;73925;-84
2023/08/04 12:09:47;;;;;;;;;;;;;;;28.01;46.87;100568.23;107709;1254;123806;-84
2023/08/04 12:12:37;;;;;;;;;;;;;;;28.03;46.69;100570.84;107749;1259;71376;-85
2023/08/04 12:15:10;;;;;;;;;;;;;;;28.01;46.72;100577.95;107688;1255;123159;-85
2023/08/04 12:17:37;;;;;;;;;;;;;;;28.04;46.57;100575.68;107727;1253;60408;-85
2023/08/04 12:20:08;;;;;;;;;;;;;;;27.92;46.61;100580.80;107901;1254;72540;-85
2023/08/04 12:22:43;;;;;;;;;;;;;;;27.88;46.63;100588.90;107538;1253;123758;-85
2023/08/04 12:25:28;;;;;;;;;;;;;;;27.86;46.93;100589.70;107874;1254;72669;-85
2023/08/04 12:27:58;;;;;;;;;;;;;;;27.85;46.87;100592.63;107711;1257;123994;-85
2023/08/04 12:30:26;;;;;;;;;;;;;;;27.68;46.56;100598.00;107682;1254;60337;-85
2023/08/04 12:32:56;;;;;;;;;;;;;;;27.41;46.45;100595.13;107681;1254;124791;-85
2023/08/04 12:35:33;;;;;;;;;;;;;;;27.07;46.82;100598.84;107677;1254;66853;-85
2023/08/04 12:38:08;;;;;;;;;;;;;;;26.80;47.31;100596.98;107656;1253;71662;-85
2023/08/04 12:40:44;;;;;;;;;;;;;;;26.58;47.80;100598.67;107555;1253;123833;-85
2023/08/04 12:43:19;;;;;;;;;;;;;;;26.43;48.18;100598.95;107710;1257;60382;-86
2023/08/04 12:45:47;;;;;;;;;;;;;;;26.23;48.10;100599.64;107343;1254;123867;-86
2023/08/04 12:48:35;;;;;;;;;;;;;;;26.03;48.05;100595.98;107635;1254;66858;-86
2023/08/04 12:51:09;;;;;;;;;;;;;;;25.83;48.30;100610.77;107629;1254;122819;-85
2023/08/04 12:53:37;;;;;;;;;;;;;;;25.71;48.63;100613.61;107277;1254;60373;-86
2023/08/04 12:56:13;;;;;;;;;;;;;;;25.62;48.74;100614.52;107267;1254;59093;-86
2023/08/04 12:58:49;;;;;;;;;;;;;;;25.57;48.95;100622.06;107476;1254;123953;-86
2023/08/04 13:04:12;;;;;;;;;;;;;;;25.37;49.02;100633.42;107898;1253;123722;-87
2023/08/04 13:06:42;;;;;;;;;;;;;;;25.27;49.22;100632.75;107846;1254;58626;-85
2023/08/04 13:09:29;;;;;;;;;;;;;;;25.32;49.38;100638.11;107610;1254;123029;-86
2023/08/04 13:11:58;;;;;;;;;;;;;;;25.51;49.30;100646.19;107876;1255;72696;-87
2023/08/04 13:14:26;;;;;;;;;;;;;;;25.67;49.03;100646.27;108101;1257;67912;-87
2023/08/04 13:16:53;;;;;;;;;;;;;;;25.88;48.87;100646.35;107998;1258;71101;-88
2023/08/04 13:19:27;;;;;;;;;;;;;;;26.02;48.73;100649.77;107721;1254;60432;-86
2023/08/04 13:21:54;;;;;;;;;;;;;;;26.21;48.83;100659.59;107971;1253;123793;-86
2023/08/04 13:24:21;;;;;;;;;;;;;;;26.32;48.55;100660.04;107911;1254;74025;-88
2023/08/04 13:27:07;;;;;;;;;;;;;;;26.34;48.23;100650.10;107741;1254;122952;-87
2023/08/04 13:30:08;;;;;;;;;;;;;;;26.34;48.45;100656.00;107913;1254;71083;-88
2023/08/04 13:33:01;;;;;;;;;;;;;;;26.39;48.56;100659.94;107455;1261;124593;-87
2023/08/04 13:35:41;;;;;;;;;;;;;;;26.42;48.53;100659.46;108094;1254;58378;-87
2023/08/04 13:38:08;;;;;;;;;;;;;;;26.33;48.35;100660.53;107963;1254;74214;-88
2023/08/04 13:40:45;;;;;;;;;;;;;;;26.33;48.42;100669.93;108112;1253;122565;-86
2023/08/04 13:43:21;;;;;;;;;;;;;;;26.30;48.35;100673.09;107776;1254;71739;-88
2023/08/04 13:46:04;;;;;;;;;;;;;;;26.30;48.43;100680.30;107649;1254;124391;-87
2023/08/04 13:48:36;;;;;;;;;;;;;;;26.23;48.34;100680.93;107546;1254;60423;-86
2023/08/04 13:51:22;;;;;;;;;;;;;;;26.14;48.72;100681.30;107865;1254;123919;-87
2023/08/04 13:53:53;;;;;;;;;;;;;;;25.98;49.20;100698.31;108145;1254;67084;-86
2023/08/04 13:56:22;;;;;;;;;;;;;;;25.58;49.91;100717.41;107545;1258;71691;-86
2023/08/04 13:58:53;;;;;;;;;;;;;;;25.01;50.67;100735.48;107843;1256;124265;-88
2023/08/04 14:01:27;;;;;;;;;;;;;;;24.46;51.72;100736.77;108065;1254;60543;-86
2023/08/04 14:03:58;;;;;;;;;;;;;;;24.00;52.55;100728.20;107463;1254;123791;-85
2023/08/04 14:06:25;;;;;;;;;;;;;;;23.55;53.61;100736.29;107827;1260;67009;-86
2023/08/04 14:08:52;;;;;;;;;;;;;;;23.31;54.42;100756.16;107650;1254;124122;-86
2023/08/04 14:11:21;;;;;;;;;;;;;;;23.17;55.19;100751.36;107794;1254;60418;-86
2023/08/04 14:13:48;;;;;;;;;;;;;;;23.16;55.87;100742.08;107716;1254;61019;-86
2023/08/04 14:16:21;;;;;;;;;;;;;;;23.23;56.30;100748.50;107637;1254;122645;-87
2023/08/04 14:18:49;;;;;;;;;;;;;;;23.30;56.61;100746.86;107985;1253;65890;-87
2023/08/04 14:21:44;;;;;;;;;;;;;;;23.42;56.79;100751.17;107746;1257;124448;-86
2023/08/04 14:24:12;;;;;;;;;;;;;;;23.63;57.11;100752.02;107805;1253;59340;-86
2023/08/04 14:26:55;;;;;;;;;;;;;;;;;;;;;
2023/08/04 14:29:31;;;;;;;;;;;;;;;23.89;57.38;100751.30;107963;1254;72396;-85
2023/08/04 14:32:00;;;;;;;;;;;;;;;23.94;56.70;100749.17;108105;1254;65245;-86
2023/08/04 14:34:39;;;;;;;;;;;;;;;23.89;56.28;100746.98;107948;1254;124040;-85
2023/08/04 14:37:07;;;;;;;;;;;;;;;23.76;56.27;100753.44;108053;1254;60328;-86
2023/08/04 14:39:34;;;;;;;;;;;;;;;23.73;56.42;100758.02;107791;1256;123656;-88
2023/08/04 14:42:11;;;;;;;;;;;;;;;23.76;56.45;100755.77;107730;1254;72421;-87
2023/08/04 14:44:38;;;;;;;;;;;;;;;23.78;56.58;100761.98;108257;1253;123940;-86
2023/08/04 14:47:05;;;;;;;;;;;;;;;23.81;56.76;100764.60;107862;1254;72698;-86
2023/08/04 14:49:36;;;;;;;;;;;;;;;23.92;57.34;100768.77;108072;1254;58949;-86
2023/08/04 14:52:03;;;;;;;;;;;;;;;24.15;57.42;100770.95;108078;1253;124310;-87
2023/08/04 14:54:31;;;;;;;;;;;;;;;24.28;57.25;100766.75;108431;1258;72264;-86
2023/08/04 14:57:01;;;;;;;;;;;;;;;24.37;57.13;100763.08;108324;1254;124373;-86
2023/08/04 14:59:32;;;;;;;;;;;;;;;24.44;56.97;100759.61;108156;1254;71430;-85
2023/08/04 15:02:01;;;;;;;;;;;;;;;24.50;56.95;100761.78;107989;1254;58750;-88
2023/08/04 15:04:28;;;;;;;;;;;;;;;24.52;56.97;100772.11;108024;1254;123705;-86
2023/08/04 15:06:57;;;;;;;;;;;;;;;24.48;56.83;100783.70;108000;1253;72386;-85
2023/08/04 15:09:25;;;;;;;;;;;;;;;24.40;56.20;100793.62;107706;1257;123745;-88
2023/08/04 15:12:00;;;;;;;;;;;;;;;24.33;56.39;100800.69;107660;1256;73152;-88
2023/08/04 15:15:04;;;;;;;;;;;;;;;;;;;;;
2023/08/04 15:17:47;;;;;;;;;;;;;;;24.36;56.28;100812.41;107745;1254;60387;-86
2023/08/04 15:20:26;;;;;;;;;;;;;;;24.31;56.17;100808.27;107794;1253;72767;-86
2023/08/04 15:23:08;;;;;;;;;;;;;;;24.31;56.23;100804.52;107396;1254;123819;-88
2023/08/04 15:25:42;;;;;;;;;;;;;;;24.42;56.38;100806.11;107595;1254;72633;-88
2023/08/04 15:28:27;;;;;;;;;;;;;;;24.55;55.95;100802.15;107829;1254;123814;-87
2023/08/04 15:31:02;;;;;;;;;;;;;;;24.55;55.72;100802.33;107290;1258;60467;-86
2023/08/04 15:33:45;;;;;;;;;;;;;;;24.51;55.67;100803.17;107688;1254;123899;-92
2023/08/04 15:36:12;;;;;;;;;;;;;;;24.38;55.66;100801.27;107914;1256;66982;-86
2023/08/04 15:39:25;;;;;;;;;;;;;;;24.30;55.66;100806.33;107636;1253;71509;-91
2023/08/04 15:53:25;;;;;;;;;;;;;;;23.93;56.49;100834.88;107797;1259;67583;-95